Time;durP1;ratioP1;P1;durP2;ratioP2;P2;SDS_P1;SDS_P2;PMS_P1;PMS_P2;Temp;Humidity;BMP_temperature;BMP_pressure;BME280_temperature;BME280_humidity;BME280_pressure;Samples;Min_cycle;Max_cycle;Signal;HPM_P1;HPM_P2
2023/07/11 00:00:14;;;;;;;7.00;2.53;;;18.80;1.00;;;;;;4991767;28;20899;-54
2023/07/11 00:02:47;;;;;;;6.33;2.83;;;18.80;1.00;;;;;;4991889;28;20550;-54
2023/07/11 00:05:15;;;;;;;6.60;3.20;;;18.80;1.00;;;;;;4992076;28;21011;-55
2023/07/11 00:07:41;;;;;;;4.93;2.80;;;18.80;1.00;;;;;;4991585;28;20907;-55
2023/07/11 00:10:08;;;;;;;5.50;2.90;;;18.80;1.00;;;;;;4991688;28;20420;-55
2023/07/11 00:12:33;;;;;;;3.83;2.63;;;18.70;1.00;;;;;;4991927;28;20458;-54
2023/07/11 00:14:59;;;;;;;6.10;2.47;;;18.70;1.00;;;;;;4991581;28;20501;-53
2023/07/11 00:17:25;;;;;;;8.83;3.73;;;18.60;1.00;;;;;;4991833;28;20195;-55
2023/07/11 00:19:53;;;;;;;4.17;2.20;;;18.60;1.00;;;;;;4991546;28;20184;-53
2023/07/11 00:22:20;;;;;;;5.57;2.87;;;18.60;1.00;;;;;;4991545;28;20204;-55
2023/07/11 00:24:48;;;;;;;3.57;2.57;;;18.50;1.00;;;;;;4991618;28;20969;-54
2023/07/11 00:27:16;;;;;;;5.77;3.13;;;18.60;1.00;;;;;;4991592;28;20554;-54
2023/07/11 00:29:41;;;;;;;7.60;3.00;;;18.60;1.00;;;;;;4991428;28;20833;-55
2023/07/11 00:32:08;;;;;;;7.00;2.93;;;18.60;1.00;;;;;;4991135;28;20419;-52
2023/07/11 00:34:34;;;;;;;5.00;2.70;;;18.60;1.00;;;;;;4991432;28;20216;-55
2023/07/11 00:37:00;;;;;;;5.83;2.63;;;18.60;1.00;;;;;;4990992;28;20419;-55
2023/07/11 00:39:30;;;;;;;4.30;2.50;;;18.60;1.00;;;;;;4991489;28;20189;-54
2023/07/11 00:41:57;;;;;;;4.33;2.93;;;18.60;1.00;;;;;;4991233;28;20188;-55
2023/07/11 00:44:23;;;;;;;7.23;2.83;;;18.60;1.00;;;;;;4991197;28;20471;-55
2023/07/11 00:46:49;;;;;;;4.47;2.90;;;18.60;1.00;;;;;;4991546;28;20454;-55
2023/07/11 00:49:18;;;;;;;4.23;3.20;;;18.50;1.00;;;;;;4992968;28;20422;-54
2023/07/11 00:51:57;;;;;;;6.37;2.73;;;18.50;1.00;;;;;;4995028;28;20421;-54
2023/07/11 00:54:26;;;;;;;5.13;3.07;;;18.40;1.00;;;;;;4994618;28;20520;-54
2023/07/11 00:56:52;;;;;;;4.70;2.70;;;18.40;1.00;;;;;;4994543;28;20461;-55
2023/07/11 00:59:20;;;;;;;3.40;2.83;;;18.40;1.00;;;;;;4994784;28;20416;-55
2023/07/11 01:02:00;;;;;;;6.20;3.10;;;18.40;1.00;;;;;;4994301;28;20982;-54
2023/07/11 01:04:26;;;;;;;5.73;2.97;;;18.40;1.00;;;;;;4994357;28;20931;-55
2023/07/11 01:06:51;;;;;;;5.80;2.90;;;18.40;1.00;;;;;;4994849;28;20434;-55
2023/07/11 01:09:17;;;;;;;5.27;2.90;;;18.40;1.00;;;;;;4994368;28;20434;-55
2023/07/11 01:12:05;;;;;;;5.80;3.10;;;18.30;1.00;;;;;;4994251;28;20190;-55
2023/07/11 01:14:31;;;;;;;5.23;3.30;;;18.20;1.00;;;;;;4994814;28;20261;-55
2023/07/11 01:16:57;;;;;;;8.47;2.70;;;18.20;1.00;;;;;;4993949;28;20513;-55
2023/07/11 01:19:23;;;;;;;4.30;3.10;;;18.20;1.00;;;;;;4993910;28;20190;-55
2023/07/11 01:21:49;;;;;;;5.93;3.30;;;18.20;1.00;;;;;;4994300;28;20238;-54
2023/07/11 01:24:15;;;;;;;8.70;3.70;;;18.20;1.00;;;;;;4994397;28;20800;-55
2023/07/11 01:26:41;;;;;;;4.87;3.10;;;18.10;1.00;;;;;;4994369;28;20427;-54
2023/07/11 01:29:08;;;;;;;5.63;3.23;;;18.10;1.00;;;;;;4993972;28;20427;-55
2023/07/11 01:31:34;;;;;;;6.07;3.40;;;18.20;1.00;;;;;;4994370;28;20244;-55
2023/07/11 01:34:02;;;;;;;5.97;3.47;;;18.20;1.00;;;;;;4994298;28;20427;-55
2023/07/11 01:36:27;;;;;;;6.20;3.00;;;18.20;1.00;;;;;;4994058;28;20466;-54
2023/07/11 01:38:53;;;;;;;7.90;4.10;;;18.30;1.00;;;;;;4993970;28;20458;-55
2023/07/11 01:41:18;;;;;;;5.13;3.17;;;18.20;1.00;;;;;;4993622;28;20524;-55
2023/07/11 01:43:44;;;;;;;5.53;3.80;;;18.20;1.00;;;;;;4993896;28;20278;-56
2023/07/11 01:46:10;;;;;;;5.03;3.50;;;18.30;1.00;;;;;;4994041;28;20189;-55
2023/07/11 01:48:36;;;;;;;5.20;3.20;;;18.30;1.00;;;;;;4993838;28;20961;-55
2023/07/11 01:51:01;;;;;;;6.90;3.93;;;18.40;1.00;;;;;;4993758;28;20259;-55
2023/07/11 01:53:27;;;;;;;7.27;3.97;;;18.40;1.00;;;;;;4993527;28;20192;-55
2023/07/11 01:56:02;;;;;;;4.83;3.40;;;18.30;1.00;;;;;;4993870;28;20171;-55
2023/07/11 01:58:28;;;;;;;7.50;3.50;;;18.30;1.00;;;;;;4993270;28;20669;-55
2023/07/11 02:00:55;;;;;;;6.80;3.37;;;18.30;1.00;;;;;;4993319;28;20414;-55
2023/07/11 02:03:21;;;;;;;7.00;3.37;;;18.30;1.00;;;;;;4993124;28;20471;-55
2023/07/11 02:05:47;;;;;;;6.77;3.43;;;18.40;1.00;;;;;;4993546;28;20420;-54
2023/07/11 02:08:12;;;;;;;8.10;3.20;;;18.40;1.00;;;;;;4993861;28;20504;-55
2023/07/11 02:10:38;;;;;;;5.60;3.30;;;18.40;1.00;;;;;;4993573;28;20590;-55
2023/07/11 02:13:03;;;;;;;5.03;2.80;;;18.40;1.00;;;;;;4993285;28;20188;-55
2023/07/11 02:15:29;;;;;;;5.10;3.60;;;18.40;1.00;;;;;;4993723;28;20188;-55
2023/07/11 02:17:55;;;;;;;5.90;3.10;;;18.30;1.00;;;;;;4993324;28;20544;-55
2023/07/11 02:20:20;;;;;;;6.40;4.10;;;18.30;1.00;;;;;;4993560;28;20318;-55
2023/07/11 02:22:46;;;;;;;13.80;3.83;;;18.20;1.00;;;;;;4993721;28;20211;-55
2023/07/11 02:25:12;;;;;;;7.30;3.67;;;18.20;1.00;;;;;;4993582;28;20629;-55
2023/07/11 02:27:37;;;;;;;8.83;3.70;;;18.10;1.00;;;;;;4993297;28;20187;-52
2023/07/11 02:30:04;;;;;;;7.67;3.90;;;18.00;1.00;;;;;;4992934;28;20561;-55
2023/07/11 02:32:30;;;;;;;8.90;4.03;;;18.00;1.00;;;;;;4993381;28;20194;-52
2023/07/11 02:34:55;;;;;;;7.77;3.90;;;18.00;1.00;;;;;;4992874;28;20422;-55
2023/07/11 02:37:21;;;;;;;4.40;3.87;;;18.10;1.00;;;;;;4992774;28;20430;-55
2023/07/11 02:39:47;;;;;;;10.57;4.50;;;18.10;1.00;;;;;;4992928;28;20177;-55
2023/07/11 02:42:13;;;;;;;6.03;3.77;;;18.10;1.00;;;;;;4993024;28;20223;-54
2023/07/11 02:44:39;;;;;;;5.27;4.20;;;18.10;1.00;;;;;;4993050;28;20446;-55
2023/07/11 02:47:04;;;;;;;9.23;3.50;;;18.10;1.00;;;;;;4992822;28;20189;-56
2023/07/11 02:49:30;;;;;;;6.03;3.60;;;18.10;1.00;;;;;;4993070;28;20188;-55
2023/07/11 02:51:55;;;;;;;7.50;4.17;;;18.10;1.00;;;;;;4992818;28;20189;-56
2023/07/11 02:54:21;;;;;;;7.60;4.20;;;18.00;1.00;;;;;;4992627;28;20581;-55
2023/07/11 02:56:47;;;;;;;9.73;4.17;;;17.90;1.00;;;;;;4992803;28;20184;-55
2023/07/11 02:59:12;;;;;;;6.83;3.80;;;17.80;1.00;;;;;;4992671;28;20657;-55
2023/07/11 03:01:38;;;;;;;12.20;4.60;;;17.60;99.90;;;;;;4992786;28;20188;-55
2023/07/11 03:04:03;;;;;;;7.30;4.30;;;17.50;99.90;;;;;;4992447;28;20208;-57
2023/07/11 03:06:29;;;;;;;11.33;5.20;;;17.50;99.90;;;;;;4993023;28;20188;-54
2023/07/11 03:08:55;;;;;;;8.93;4.50;;;17.50;99.90;;;;;;4992787;28;20549;-55
2023/07/11 03:11:20;;;;;;;8.77;4.10;;;17.40;99.90;;;;;;4992021;28;20325;-55
2023/07/11 03:13:46;;;;;;;9.87;4.47;;;17.30;99.90;;;;;;4992424;28;20526;-55
2023/07/11 03:16:11;;;;;;;12.17;4.37;;;17.40;99.90;;;;;;4992305;28;20184;-55
2023/07/11 03:18:37;;;;;;;6.60;3.90;;;17.40;99.90;;;;;;4992735;28;20280;-56
2023/07/11 03:21:03;;;;;;;8.50;4.13;;;17.50;99.90;;;;;;4992479;28;20656;-53
2023/07/11 03:23:30;;;;;;;6.90;4.23;;;17.60;99.90;;;;;;4992138;28;20211;-55
2023/07/11 03:25:55;;;;;;;5.13;3.50;;;17.80;99.90;;;;;;4992411;28;20219;-55
2023/07/11 03:28:21;;;;;;;6.60;4.47;;;17.80;99.90;;;;;;4992548;28;20890;-57
2023/07/11 03:30:48;;;;;;;7.40;4.10;;;17.90;99.90;;;;;;4992384;28;20187;-55
2023/07/11 03:33:14;;;;;;;9.37;4.70;;;17.90;99.90;;;;;;4992599;28;20192;-55
2023/07/11 03:35:39;;;;;;;7.33;4.50;;;17.80;99.90;;;;;;4992207;28;20515;-55
2023/07/11 03:38:05;;;;;;;7.10;4.70;;;17.80;99.90;;;;;;4991788;28;20451;-55
2023/07/11 03:40:31;;;;;;;9.33;4.70;;;17.70;99.90;;;;;;4992286;28;20581;-54
2023/07/11 03:42:57;;;;;;;10.27;5.20;;;17.70;99.90;;;;;;4992024;28;20241;-54
2023/07/11 03:45:22;;;;;;;11.60;5.50;;;17.70;99.90;;;;;;4992158;28;20196;-56
2023/07/11 03:47:48;;;;;;;11.73;5.27;;;17.80;99.90;;;;;;4992088;28;20433;-55
2023/07/11 03:50:14;;;;;;;8.87;4.70;;;17.80;99.90;;;;;;4992384;28;20184;-55
2023/07/11 03:52:40;;;;;;;10.77;5.37;;;17.90;99.90;;;;;;4992140;28;20207;-55
2023/07/11 03:55:06;;;;;;;10.10;5.33;;;17.90;99.90;;;;;;4991934;28;20478;-55
2023/07/11 03:57:33;;;;;;;10.50;5.10;;;17.90;99.90;;;;;;4992155;28;20187;-55
2023/07/11 03:59:58;;;;;;;12.20;5.60;;;18.00;99.90;;;;;;5006827;28;20565;-55
2023/07/11 04:02:24;;;;;;;16.00;6.23;;;18.00;99.90;;;;;;4991913;28;20549;-54
2023/07/11 04:04:49;;;;;;;13.20;6.40;;;18.00;99.90;;;;;;4992028;28;20195;-55
2023/07/11 04:07:15;;;;;;;15.13;5.80;;;18.00;99.90;;;;;;4991841;28;20742;-55
2023/07/11 04:09:42;;;;;;;9.60;5.90;;;18.00;99.90;;;;;;4991644;28;20190;-54
2023/07/11 04:12:08;;;;;;;9.60;6.00;;;18.00;99.90;;;;;;4991831;28;20190;-55
2023/07/11 04:14:33;;;;;;;7.50;4.33;;;18.10;99.90;;;;;;4992091;28;20544;-55
2023/07/11 04:16:59;;;;;;;13.93;5.33;;;18.10;99.90;;;;;;4991676;28;20851;-55
2023/07/11 04:19:24;;;;;;;9.30;5.00;;;18.20;99.90;;;;;;4991654;28;20191;-54
2023/07/11 04:21:50;;;;;;;13.40;5.93;;;18.10;99.90;;;;;;4991798;28;20180;-55
2023/07/11 04:24:16;;;;;;;12.10;5.07;;;18.10;99.90;;;;;;4990531;28;20538;-55
2023/07/11 04:26:41;;;;;;;10.20;5.20;;;18.10;99.90;;;;;;4991308;28;20309;-54
2023/07/11 04:29:07;;;;;;;14.20;5.47;;;18.10;99.90;;;;;;4991594;28;20192;-55
2023/07/11 04:31:32;;;;;;;11.53;4.83;;;18.10;99.90;;;;;;4991662;28;20659;-54
2023/07/11 04:33:58;;;;;;;15.13;5.70;;;18.00;99.90;;;;;;4991164;28;20241;-55
2023/07/11 04:36:24;;;;;;;10.20;5.20;;;18.10;99.90;;;;;;4991506;28;20267;-54
2023/07/11 04:38:49;;;;;;;9.57;4.63;;;18.10;99.90;;;;;;4991074;28;20633;-54
2023/07/11 04:41:15;;;;;;;9.40;4.80;;;18.10;99.90;;;;;;4991419;28;20192;-54
2023/07/11 04:43:40;;;;;;;12.47;5.90;;;18.00;99.90;;;;;;4991050;28;20349;-54
2023/07/11 04:46:07;;;;;;;9.27;4.23;;;18.00;99.90;;;;;;4991379;28;20192;-55
2023/07/11 04:48:33;;;;;;;8.70;5.40;;;18.10;99.90;;;;;;4991256;28;20244;-54
2023/07/11 04:51:02;;;;;;;8.63;4.80;;;18.20;99.90;;;;;;4991415;28;20424;-55
2023/07/11 04:53:29;;;;;;;8.40;4.67;;;18.30;99.90;;;;;;4991280;28;20423;-55
2023/07/11 04:55:56;;;;;;;12.30;5.10;;;18.30;99.90;;;;;;4991093;28;20420;-54
2023/07/11 04:58:23;;;;;;;12.77;4.60;;;18.40;99.90;;;;;;4991411;28;20426;-55
2023/07/11 05:00:49;;;;;;;10.23;6.00;;;18.50;99.90;;;;;;4991378;28;20423;-55
2023/07/11 05:03:15;;;;;;;8.50;4.90;;;18.60;99.90;;;;;;4991276;28;20478;-55
2023/07/11 05:05:40;;;;;;;10.70;5.07;;;18.70;99.90;;;;;;4991172;28;20690;-55
2023/07/11 05:08:06;;;;;;;7.93;4.90;;;18.80;99.90;;;;;;4991151;28;20221;-55
2023/07/11 05:10:32;;;;;;;8.70;5.03;;;18.90;99.90;;;;;;4991331;28;20188;-55
2023/07/11 05:12:57;;;;;;;9.90;4.83;;;19.00;99.90;;;;;;4991088;28;20183;-53
2023/07/11 05:15:23;;;;;;;11.00;5.00;;;19.10;99.90;;;;;;4990994;28;20188;-54
2023/07/11 05:17:48;;;;;;;5.23;4.13;;;19.20;99.90;;;;;;4990767;28;20283;-52
2023/07/11 05:20:14;;;;;;;9.40;5.00;;;19.30;97.10;;;;;;4990586;28;20237;-54
2023/07/11 05:22:40;;;;;;;7.70;4.60;;;19.40;73.20;;;;;;4991018;28;20266;-55
2023/07/11 05:25:06;;;;;;;7.90;4.30;;;19.50;28.90;;;;;;4990632;28;20217;-55
2023/07/11 05:27:32;;;;;;;9.27;4.43;;;19.60;1.00;;;;;;4990920;28;20451;-54
2023/07/11 05:29:58;;;;;;;8.40;4.40;;;19.80;1.00;;;;;;4990368;28;20459;-54
2023/07/11 05:32:23;;;;;;;6.60;3.90;;;19.90;1.00;;;;;;4990525;28;20187;-54
2023/07/11 05:34:49;;;;;;;10.80;3.80;;;19.90;1.00;;;;;;4991783;28;20209;-54
2023/07/11 05:37:14;;;;;;;8.07;3.93;;;20.00;1.00;;;;;;4993978;28;20178;-55
2023/07/11 05:39:40;;;;;;;7.97;4.07;;;20.20;1.00;;;;;;4993764;28;20182;-54
2023/07/11 05:42:06;;;;;;;8.30;4.10;;;20.40;1.00;;;;;;4993874;28;20209;-54
2023/07/11 05:44:31;;;;;;;11.83;3.87;;;20.50;1.00;;;;;;4993765;28;20187;-54
2023/07/11 05:46:57;;;;;;;8.93;4.63;;;20.60;1.00;;;;;;4993931;28;20680;-61
2023/07/11 05:49:23;;;;;;;6.57;3.40;;;20.80;1.00;;;;;;4993686;28;20208;-61
2023/07/11 05:51:49;;;;;;;6.70;3.67;;;20.90;1.00;;;;;;4993744;28;20185;-61
2023/07/11 05:54:15;;;;;;;6.97;3.73;;;21.00;1.00;;;;;;4993343;28;20256;-62
2023/07/11 05:56:41;;;;;;;5.77;3.50;;;21.10;1.00;;;;;;4993602;28;20921;-59
2023/07/11 05:59:06;;;;;;;12.57;4.00;;;21.20;1.00;;;;;;4994006;28;20183;-61
2023/07/11 06:01:32;;;;;;;5.97;3.33;;;21.40;1.00;;;;;;4993683;28;20414;-61
2023/07/11 06:04:06;;;;;;;4.80;3.40;;;21.60;1.00;;;;;;4993676;28;20246;-61
2023/07/11 06:06:35;;;;;;;11.33;4.00;;;21.70;1.00;;;;;;4993514;28;20438;-62
2023/07/11 06:09:00;;;;;;;6.67;3.60;;;21.80;1.00;;;;;;4993799;28;20507;-59
2023/07/11 06:11:26;;;;;;;6.70;3.10;;;21.90;1.00;;;;;;4993680;28;20517;-61
2023/07/11 06:13:51;;;;;;;5.73;3.20;;;22.00;1.00;;;;;;4993568;28;20290;-59
2023/07/11 06:16:18;;;;;;;8.17;3.03;;;22.10;1.00;;;;;;4993426;28;20186;-60
2023/07/11 06:18:46;;;;;;;7.57;3.50;;;22.10;1.00;;;;;;4993592;28;20220;-59
2023/07/11 06:21:13;;;;;;;8.93;3.30;;;22.20;1.00;;;;;;4993351;28;20426;-60
2023/07/11 06:23:39;;;;;;;10.40;3.37;;;22.30;1.00;;;;;;4993539;28;20469;-60
2023/07/11 06:26:05;;;;;;;10.03;3.43;;;22.40;1.00;;;;;;4993276;28;20421;-59
2023/07/11 06:28:31;;;;;;;5.13;2.83;;;22.40;1.00;;;;;;4993241;28;20755;-60
2023/07/11 06:30:58;;;;;;;9.40;3.60;;;22.30;1.00;;;;;;4993485;28;20419;-60
2023/07/11 06:33:25;;;;;;;4.90;3.33;;;22.40;1.00;;;;;;4993074;28;20422;-60
2023/07/11 06:35:51;;;;;;;8.83;3.03;;;22.40;1.00;;;;;;4993311;28;20435;-60
2023/07/11 06:38:18;;;;;;;7.70;3.70;;;22.60;1.00;;;;;;4992972;28;20423;-60
2023/07/11 06:40:51;;;;;;;10.10;3.27;;;22.70;1.00;;;;;;4992909;28;20185;-60
2023/07/11 06:43:17;;;;;;;9.70;3.30;;;23.00;1.00;;;;;;4992897;28;20455;-60
2023/07/11 06:45:53;;;;;;;8.90;3.50;;;23.30;1.00;;;;;;4992506;28;20514;-60
2023/07/11 06:48:20;;;;;;;7.00;3.37;;;23.50;1.00;;;;;;4992744;28;20500;-60
2023/07/11 06:50:55;;;;;;;8.00;3.30;;;23.50;1.00;;;;;;4993369;28;20422;-61
2023/07/11 06:53:22;;;;;;;6.70;3.23;;;23.60;1.00;;;;;;4993330;28;20456;-58
2023/07/11 06:55:49;;;;;;;3.93;2.83;;;23.90;1.00;;;;;;4992886;28;20440;-59
2023/07/11 06:58:16;;;;;;;6.20;2.93;;;24.20;1.00;;;;;;4992897;28;20903;-59
2023/07/11 07:00:42;;;;;;;7.37;3.30;;;24.40;1.00;;;;;;4993203;28;20470;-59
2023/07/11 07:03:12;;;;;;;7.33;2.80;;;24.30;1.00;;;;;;4992770;28;20470;-58
2023/07/11 07:05:38;;;;;;;7.10;2.90;;;24.20;1.00;;;;;;4992439;28;20899;-59
2023/07/11 07:08:03;;;;;;;8.13;3.00;;;24.30;1.00;;;;;;4992301;28;20430;-59
2023/07/11 07:10:29;;;;;;;5.53;3.17;;;24.50;1.00;;;;;;4992823;28;20230;-59
2023/07/11 07:12:54;;;;;;;10.40;2.90;;;24.70;1.00;;;;;;4992835;28;20551;-59
2023/07/11 07:15:20;;;;;;;8.03;2.90;;;24.80;1.00;;;;;;4992669;28;20185;-59
2023/07/11 07:17:46;;;;;;;5.37;2.70;;;24.90;1.00;;;;;;4992257;28;20516;-60
2023/07/11 07:20:12;;;;;;;6.60;3.17;;;25.10;1.00;;;;;;4992321;28;20755;-57
2023/07/11 07:22:38;;;;;;;4.67;2.90;;;25.00;1.00;;;;;;4992353;28;20213;-58
2023/07/11 07:25:04;;;;;;;4.60;2.90;;;25.10;1.00;;;;;;4992283;28;20439;-58
2023/07/11 07:27:30;;;;;;;6.57;2.30;;;25.40;1.00;;;;;;4992303;28;20428;-57
2023/07/11 07:29:55;;;;;;;6.77;3.03;;;25.70;1.00;;;;;;4992372;28;20490;-59
2023/07/11 07:32:21;;;;;;;8.77;2.90;;;25.70;1.00;;;;;;4992458;28;20570;-58
2023/07/11 07:34:47;;;;;;;6.03;2.50;;;25.50;1.00;;;;;;4991979;28;20570;-58
2023/07/11 07:37:13;;;;;;;3.57;2.67;;;25.50;1.00;;;;;;4992131;28;20270;-58
2023/07/11 07:39:39;;;;;;;3.93;2.33;;;25.60;1.00;;;;;;4991868;28;20185;-57
2023/07/11 07:42:05;;;;;;;4.73;2.53;;;25.70;1.00;;;;;;4992374;28;20423;-59
2023/07/11 07:44:31;;;;;;;4.57;2.50;;;25.80;1.00;;;;;;4991735;28;20468;-57
2023/07/11 07:46:56;;;;;;;4.87;2.90;;;26.10;1.00;;;;;;4991921;28;20469;-58
2023/07/11 07:49:22;;;;;;;3.70;2.70;;;26.50;1.00;;;;;;4992067;28;20215;-58
2023/07/11 07:51:47;;;;;;;5.67;2.50;;;26.30;1.00;;;;;;4991229;28;20238;-54
2023/07/11 07:54:13;;;;;;;6.43;2.40;;;26.50;1.00;;;;;;4991315;28;20324;-55
2023/07/11 07:56:39;;;;;;;3.30;2.50;;;26.60;99.90;;;;;;4990673;28;20621;-60
2023/07/11 07:59:04;;;;;;;4.83;2.40;;;26.60;99.90;;;;;;4992016;28;20177;-61
2023/07/11 08:01:31;;;;;;;6.40;2.33;;;26.60;99.90;;;;;;4992270;28;20188;-60
2023/07/11 08:03:56;;;;;;;5.33;2.80;;;26.90;99.90;;;;;;4991995;28;20217;-61
2023/07/11 08:06:22;;;;;;;6.63;3.20;;;27.20;99.90;;;;;;4991969;28;20473;-59
2023/07/11 08:08:49;;;;;;;3.87;2.27;;;27.60;99.90;;;;;;4991439;28;20179;-59
2023/07/11 08:11:16;;;;;;;7.97;2.57;;;28.10;99.90;;;;;;4991666;28;20188;-57
2023/07/11 08:13:43;;;;;;;3.93;2.10;;;28.50;99.90;;;;;;4991776;28;20471;-56
2023/07/11 08:16:08;;;;;;;5.10;2.70;;;28.60;99.90;;;;;;4991705;28;20420;-56
2023/07/11 08:18:34;;;;;;;4.17;2.50;;;28.70;99.90;;;;;;4991511;28;20423;-57
2023/07/11 08:20:59;;;;;;;8.50;2.70;;;29.00;99.90;;;;;;4991484;28;20358;-56
2023/07/11 08:23:25;;;;;;;4.47;2.47;;;29.30;99.90;;;;;;4991102;28;20945;-60
2023/07/11 08:25:55;;;;;;;4.67;2.60;;;29.20;99.90;;;;;;4991224;28;20215;-59
2023/07/11 08:28:20;;;;;;;4.40;2.60;;;29.20;99.90;;;;;;4991585;28;20183;-57
2023/07/11 08:30:46;;;;;;;6.87;2.43;;;29.20;99.90;;;;;;4991366;28;20840;-57
2023/07/11 08:33:12;;;;;;;5.03;2.13;;;29.60;99.90;;;;;;4991139;28;20674;-57
2023/07/11 08:35:37;;;;;;;9.63;2.77;;;30.00;99.90;;;;;;4991126;28;20444;-55
2023/07/11 08:38:06;;;;;;;3.70;2.27;;;29.70;99.90;;;;;;4991150;28;20567;-55
2023/07/11 08:40:38;;;;;;;5.23;2.60;;;29.60;99.90;;;;;;4991489;28;20191;-53
2023/07/11 08:43:05;;;;;;;5.70;2.57;;;29.90;99.90;;;;;;4991321;28;20872;-55
2023/07/11 08:45:40;;;;;;;3.53;2.07;;;30.20;99.90;;;;;;4991310;28;20491;-55
2023/07/11 08:48:14;;;;;;;8.20;2.57;;;30.50;99.90;;;;;;4991333;28;20407;-58
2023/07/11 08:50:53;;;;;;;4.10;2.20;;;30.30;99.90;;;;;;4991227;28;20586;-56
2023/07/11 08:53:25;;;;;;;5.23;2.83;;;30.30;99.90;;;;;;4991223;28;20886;-58
2023/07/11 08:55:55;;;;;;;7.30;2.20;;;30.50;99.90;;;;;;4990959;28;20979;-53
2023/07/11 08:58:34;;;;;;;6.40;2.90;;;30.40;99.90;;;;;;4991138;28;20413;-56
2023/07/11 09:01:02;;;;;;;4.03;2.77;;;30.30;99.90;;;;;;4991454;28;20408;-56
2023/07/11 09:03:42;;;;;;;3.50;2.30;;;30.30;99.90;;;;;;4990944;28;20478;-56
2023/07/11 09:06:15;;;;;;;3.50;2.40;;;30.30;99.90;;;;;;4990764;28;20745;-57
2023/07/11 09:08:46;;;;;;;2.73;2.40;;;30.10;99.90;;;;;;4991378;28;20739;-56
2023/07/11 09:11:24;;;;;;;5.53;2.50;;;30.00;99.90;;;;;;4993870;28;20408;-58
2023/07/11 09:14:16;;;;;;;4.07;2.57;;;29.80;99.90;;;;;;4994381;28;20486;-58
2023/07/11 09:16:53;;;;;;;9.37;2.43;;;29.70;99.90;;;;;;4994186;28;20854;-58
2023/07/11 09:19:46;;;;;;;8.53;3.00;;;29.70;99.90;;;;;;4994288;28;20412;-60
2023/07/11 09:22:23;;;;;;;6.57;2.67;;;29.80;99.90;;;;;;4993961;28;20412;-57
2023/07/11 09:24:53;;;;;;;5.73;2.57;;;30.20;99.90;;;;;;4993956;28;20480;-56
2023/07/11 09:27:37;;;;;;;3.97;2.60;;;30.10;99.90;;;;;;4994198;28;20412;-57
2023/07/11 09:30:16;;;;;;;5.30;2.30;;;30.10;99.90;;;;;;4994340;28;20421;-60
2023/07/11 09:32:42;;;;;;;3.93;2.60;;;30.40;99.90;;;;;;4993790;28;20494;-55
2023/07/11 09:35:25;;;;;;;5.00;2.83;;;30.70;99.90;;;;;;4994074;28;20505;-58
2023/07/11 09:37:56;;;;;;;6.33;2.40;;;30.90;99.90;;;;;;4993641;28;20404;-55
2023/07/11 09:40:32;;;;;;;3.77;3.00;;;30.90;99.90;;;;;;4993815;28;20423;-55
2023/07/11 09:42:58;;;;;;;2.53;2.10;;;31.10;99.90;;;;;;4993590;28;20455;-56
2023/07/11 09:45:35;;;;;;;3.33;2.30;;;31.10;99.90;;;;;;4993484;28;20412;-55
2023/07/11 09:48:10;;;;;;;7.20;2.50;;;31.00;99.90;;;;;;4993779;28;20412;-56
2023/07/11 09:50:55;;;;;;;4.37;2.20;;;30.90;99.90;;;;;;4993698;28;20514;-55
2023/07/11 09:53:26;;;;;;;6.97;2.20;;;30.90;99.90;;;;;;4993537;28;20416;-56
2023/07/11 09:56:00;;;;;;;5.97;2.47;;;30.90;99.90;;;;;;4993688;28;20417;-56
2023/07/11 09:58:32;;;;;;;5.60;2.70;;;31.30;99.90;;;;;;4993134;28;20523;-56
2023/07/11 10:01:01;;;;;;;10.40;2.63;;;32.00;99.90;;;;;;4993317;28;20510;-56
2023/07/11 10:03:28;;;;;;;3.70;2.50;;;32.20;99.90;;;;;;4993283;28;20471;-57
2023/07/11 10:05:55;;;;;;;8.77;2.70;;;32.50;99.90;;;;;;4993305;28;20477;-57
2023/07/11 10:08:26;;;;;;;3.07;2.20;;;32.40;99.90;;;;;;4993496;28;20447;-57
2023/07/11 10:10:54;;;;;;;4.93;1.83;;;32.40;99.90;;;;;;4993443;28;20892;-57
2023/07/11 10:13:21;;;;;;;3.43;2.57;;;32.10;99.90;;;;;;4992999;28;20510;-55
2023/07/11 10:15:51;;;;;;;3.90;2.10;;;31.80;99.90;;;;;;4993495;28;20419;-56
2023/07/11 10:18:23;;;;;;;3.87;2.20;;;31.70;99.90;;;;;;4993169;28;20447;-56
2023/07/11 10:20:58;;;;;;;8.90;2.97;;;31.90;99.90;;;;;;4992289;28;20416;-57
2023/07/11 10:23:25;;;;;;;4.60;2.10;;;32.10;99.90;;;;;;4993055;28;20451;-55
2023/07/11 10:26:03;;;;;;;5.63;2.50;;;32.60;99.90;;;;;;4993395;28;20800;-56
2023/07/11 10:28:33;;;;;;;3.67;2.20;;;33.20;99.90;;;;;;4993208;28;20408;-55
2023/07/11 10:31:10;;;;;;;4.60;2.43;;;33.20;99.90;;;;;;4993258;28;20428;-57
2023/07/11 10:33:51;;;;;;;3.37;2.20;;;33.00;99.90;;;;;;4992860;28;20895;-57
2023/07/11 10:36:24;;;;;;;7.77;2.70;;;33.20;99.90;;;;;;4993274;28;20443;-56
2023/07/11 10:39:00;;;;;;;3.37;2.23;;;33.20;99.90;;;;;;4993070;28;20440;-55
2023/07/11 10:41:53;;;;;;;3.40;2.10;;;33.40;99.90;;;;;;4993155;28;20505;-56
2023/07/11 10:44:40;;;;;;;4.27;2.10;;;33.60;99.90;;;;;;4992481;28;20448;-56
2023/07/11 10:47:09;;;;;;;4.30;2.53;;;33.00;99.90;;;;;;4992878;28;20930;-56
2023/07/11 10:49:44;;;;;;;6.03;2.57;;;33.00;99.90;;;;;;4992821;28;20412;-56
2023/07/11 10:52:24;;;;;;;3.50;2.20;;;33.10;99.90;;;;;;4992633;28;20415;-57
2023/07/11 10:55:17;;;;;;;4.67;2.50;;;33.20;99.90;;;;;;4992021;28;20521;-56
2023/07/11 10:57:50;;;;;;;2.90;2.63;;;33.10;99.90;;;;;;4992650;28;20396;-57
2023/07/11 11:00:20;;;;;;;5.33;2.20;;;33.10;99.90;;;;;;4992297;28;20416;-57
2023/07/11 11:02:55;;;;;;;6.33;2.73;;;33.10;99.90;;;;;;4992465;28;20782;-56
2023/07/11 11:05:49;;;;;;;2.90;2.50;;;33.10;99.90;;;;;;4992184;28;20412;-57
2023/07/11 11:08:24;;;;;;;4.63;2.97;;;33.30;99.90;;;;;;4999409;28;20465;-55
2023/07/11 11:11:00;;;;;;;3.67;2.47;;;33.40;99.90;;;;;;4992601;28;20416;-56
2023/07/11 11:13:35;;;;;;;7.90;2.87;;;33.10;99.90;;;;;;4992614;28;20960;-57
2023/07/11 11:16:23;;;;;;;5.07;2.77;;;33.20;99.90;;;;;;4992184;28;20492;-56
2023/07/11 11:19:11;;;;;;;3.73;2.50;;;34.00;99.90;;;;;;4992354;28;20412;-56
2023/07/11 11:21:50;;;;;;;5.00;2.70;;;34.40;99.90;;;;;;5019655;28;20439;-57
2023/07/11 11:24:34;;;;;;;3.10;2.70;;;34.20;99.90;;;;;;4991780;28;20452;-57
2023/07/11 11:27:27;;;;;;;5.93;2.27;;;33.60;99.90;;;;;;4992369;28;20458;-55
2023/07/11 11:30:33;;;;;;;8.30;3.00;;;33.60;99.90;;;;;;4992278;28;20561;-56
2023/07/11 11:33:32;;;;;;;4.80;2.83;;;33.90;99.90;;;;;;4991580;28;20405;-56
2023/07/11 11:36:14;;;;;;;6.13;2.90;;;33.70;99.90;;;;;;4992265;28;20444;-57
2023/07/11 11:39:09;;;;;;;3.70;2.80;;;33.30;99.90;;;;;;4992247;28;20408;-56
2023/07/11 11:41:44;;;;;;;3.70;2.70;;;33.60;99.90;;;;;;4991715;28;20540;-56
2023/07/11 11:44:17;;;;;;;5.07;2.47;;;34.10;99.90;;;;;;4991933;28;20542;-56
2023/07/11 11:46:44;;;;;;;5.20;2.80;;;34.30;99.90;;;;;;4991914;28;20412;-56
2023/07/11 11:49:12;;;;;;;4.27;2.80;;;33.70;99.90;;;;;;4991617;28;20428;-56
2023/07/11 11:51:39;;;;;;;3.00;2.63;;;33.00;99.90;;;;;;4991431;28;20420;-56
2023/07/11 11:54:16;;;;;;;6.10;3.17;;;33.10;99.90;;;;;;4991482;28;20568;-57
2023/07/11 11:56:48;;;;;;;3.43;2.67;;;33.60;99.90;;;;;;4991699;28;20473;-57
2023/07/11 11:59:21;;;;;;;4.80;3.13;;;34.60;99.90;;;;;;4991707;28;20452;-57
2023/07/11 12:01:52;;;;;;;4.17;3.00;;;34.50;99.90;;;;;;4991417;28;20420;-54
2023/07/11 12:04:27;;;;;;;6.37;3.10;;;34.60;99.90;;;;;;4991694;28;20493;-54
2023/07/11 12:07:04;;;;;;;5.00;3.50;;;34.70;99.90;;;;;;4991640;28;20459;-54
2023/07/11 12:09:33;;;;;;;6.10;3.13;;;34.80;99.90;;;;;;4991418;28;20506;-54
2023/07/11 12:12:09;;;;;;;3.47;3.10;;;35.00;99.90;;;;;;4991492;28;20428;-56
2023/07/11 12:14:56;;;;;;;7.57;3.03;;;35.10;99.90;;;;;;4991447;28;20451;-56
2023/07/11 12:17:34;;;;;;;3.03;2.73;;;35.30;99.90;;;;;;4991379;28;20421;-57
2023/07/11 12:19:59;;;;;;;3.93;2.90;;;35.80;99.90;;;;;;4991603;28;20451;-55
2023/07/11 12:22:26;;;;;;;5.20;2.93;;;35.90;99.90;;;;;;4991406;28;20463;-56
2023/07/11 12:25:02;;;;;;;4.57;2.70;;;35.40;99.90;;;;;;4991408;28;20598;-57
2023/07/11 12:27:45;;;;;;;4.70;2.87;;;35.10;99.90;;;;;;4991307;28;20498;-56
2023/07/11 12:30:13;;;;;;;5.47;3.00;;;35.30;99.90;;;;;;4991638;28;20412;-56
2023/07/11 12:32:43;;;;;;;4.37;3.50;;;35.40;99.90;;;;;;4991310;28;20420;-56
2023/07/11 12:35:08;;;;;;;6.57;2.93;;;35.10;99.90;;;;;;4991383;28;20518;-57
2023/07/11 12:37:52;;;;;;;6.73;3.43;;;35.40;99.90;;;;;;4991174;28;20499;-54
2023/07/11 12:40:33;;;;;;;4.07;3.10;;;36.10;99.90;;;;;;4991229;28;20191;-55
2023/07/11 12:43:03;;;;;;;4.97;3.30;;;36.50;99.90;;;;;;4990957;28;20452;-54
2023/07/11 12:45:53;;;;;;;5.77;3.37;;;36.60;99.90;;;;;;4992632;28;20450;-55
2023/07/11 12:48:32;;;;;;;4.10;3.00;;;37.00;99.90;;;;;;4994890;28;20408;-55
2023/07/11 12:51:03;;;;;;;3.80;2.83;;;37.20;99.90;;;;;;4994979;28;20412;-54
2023/07/11 12:53:34;;;;;;;5.37;3.93;;;36.60;99.90;;;;;;4993402;28;20412;-54
2023/07/11 12:55:59;;;;;;;3.50;3.20;;;36.20;99.90;;;;;;4993119;28;20742;-55
2023/07/11 12:58:27;;;;;;;5.67;3.27;;;36.20;99.90;;;;;;4994205;28;20419;-55
2023/07/11 13:00:55;;;;;;;3.83;3.13;;;36.40;99.90;;;;;;4993539;28;20196;-55